< < Back
Terminal Aerodrome Forecast


Current Version              Previous Versions:   1  2  3  4  5  6  7  8  9  

Terminal Aerodrome Forecast

384
FTUS42 KTAE 301700
TAFVLD
TAF
KVLD 301739Z 3018/0118 03008KT P6SM OVC010
     FM302000 04005KT P6SM BKN025
     FM302200 06003KT P6SM BKN035
     FM010900 06003KT 3SM BR SCT004
     FM011300 09004KT P6SM SCT035=



Latest METAR

633
SAUS70 KWBC 302200 RRL
MTRVLD
METAR KVLD 302153Z 05003KT 10SM BKN025 OVC038 24/21 A2986 RMK AO2 SLP116
T02440206


USA.gov is the U.S. government's official web portal to all federal, state and local government web resources and services.